Time;durP1;ratioP1;P1;durP2;ratioP2;P2;SDS_P1;SDS_P2;PMS_P1;PMS_P2;Temp;Humidity;BMP_temperature;BMP_pressure;BME280_temperature;BME280_humidity;BME280_pressure;Samples;Min_cycle;Max_cycle;Signal;HPM_P1;HPM_P2
2021/08/05 00:00:33;;;;;;;10.60;3.97;;;;;;;25.46;40.35;94553.97;2951160;40;20077;-75
2021/08/05 00:02:35;;;;;;;9.02;3.70;;;;;;;25.47;39.95;94544.88;2947268;40;20163;-75
2021/08/05 00:04:37;;;;;;;7.63;3.83;;;;;;;25.45;40.29;94550.50;2940980;40;20037;-75
2021/08/05 00:06:38;;;;;;;11.40;3.72;;;;;;;25.45;40.54;94549.69;2944783;40;20418;-76
2021/08/05 00:08:40;;;;;;;6.35;3.53;;;;;;;25.43;40.12;94541.09;2951051;40;20115;-74
2021/08/05 00:10:42;;;;;;;9.30;3.90;;;;;;;25.40;40.19;94544.25;2950290;40;20521;-76
2021/08/05 00:12:44;;;;;;;10.32;3.80;;;;;;;25.25;40.43;94547.63;2948201;40;20053;-73
2021/08/05 00:14:45;;;;;;;16.70;5.05;;;;;;;25.24;40.51;94541.47;2955727;40;20150;-75
2021/08/05 00:16:47;;;;;;;8.75;3.63;;;;;;;25.26;40.50;94538.53;2949447;40;20064;-74
2021/08/05 00:18:49;;;;;;;12.02;3.88;;;;;;;25.28;40.46;94537.22;2950052;40;20490;-74
2021/08/05 00:20:51;;;;;;;9.13;3.97;;;;;;;25.03;40.87;94543.09;2949537;40;20076;-76
2021/08/05 00:22:53;;;;;;;11.57;4.28;;;;;;;24.94;41.01;94547.31;2950066;40;20363;-76
2021/08/05 00:24:54;;;;;;;9.93;3.90;;;;;;;24.93;40.87;94551.84;2947317;40;20142;-76
2021/08/05 00:26:58;;;;;;;10.27;4.22;;;;;;;24.95;40.79;94551.59;2958917;40;20307;-76
2021/08/05 00:29:00;;;;;;;6.45;3.47;;;;;;;24.93;40.80;94543.81;2957066;40;20049;-76
2021/08/05 00:31:01;;;;;;;9.93;4.10;;;;;;;24.92;41.19;94552.09;2956079;40;20053;-75
2021/08/05 00:33:03;;;;;;;8.75;4.20;;;;;;;24.41;42.41;94560.31;2949535;40;20064;-75
2021/08/05 00:35:06;;;;;;;14.48;4.65;;;;;;;23.81;44.76;94563.78;2958759;40;20139;-75
2021/08/05 00:37:08;;;;;;;8.23;4.43;;;;;;;23.43;45.52;94562.66;2947971;40;20332;-74
2021/08/05 00:39:09;;;;;;;9.60;4.93;;;;;;;23.43;45.52;94557.28;2947707;40;20469;-75
2021/08/05 00:41:12;;;;;;;8.98;4.22;;;;;;;23.63;45.12;94554.94;2950627;40;20132;-75
2021/08/05 00:43:15;;;;;;;8.77;4.50;;;;;;;23.86;44.91;94553.16;2951031;40;20073;-74
2021/08/05 00:45:17;;;;;;;9.65;4.20;;;;;;;24.06;44.13;94548.09;2950474;40;20118;-76
2021/08/05 00:47:18;;;;;;;11.05;4.30;;;;;;;24.21;44.32;94552.03;2948770;40;20168;-75
2021/08/05 00:49:20;;;;;;;10.93;4.75;;;;;;;24.34;44.00;94554.34;2948267;40;20061;-76
2021/08/05 00:51:22;;;;;;;9.88;5.30;;;;;;;24.46;43.72;94554.25;2949293;40;20046;-76
2021/08/05 00:53:25;;;;;;;9.75;5.07;;;;;;;24.28;44.07;94550.78;2949398;40;20150;-75
2021/08/05 00:55:27;;;;;;;10.57;5.25;;;;;;;23.97;44.67;94554.13;2950072;40;20070;-76
2021/08/05 00:57:28;;;;;;;10.57;4.57;;;;;;;23.78;45.24;94556.25;2949722;40;20065;-74
2021/08/05 00:59:30;;;;;;;11.35;5.00;;;;;;;23.69;45.39;94558.50;2947023;40;20073;-76
2021/08/05 01:01:43;;;;;;;12.80;4.50;;;;;;;23.66;45.52;94567.00;2950296;40;20063;-76
2021/08/05 01:03:49;;;;;;;9.73;4.75;;;;;;;23.83;45.28;94562.50;2943453;40;20072;-75
2021/08/05 01:06:06;;;;;;;12.63;4.97;;;;;;;23.99;45.27;94558.16;2945810;40;20061;-75
2021/08/05 01:08:11;;;;;;;16.85;4.50;;;;;;;24.13;44.83;94553.25;2963214;40;20072;-76
2021/08/05 01:10:18;;;;;;;10.13;4.28;;;;;;;24.23;44.40;94553.41;2956995;40;20049;-75
2021/08/05 01:12:39;;;;;;;11.23;4.38;;;;;;;24.37;44.08;94559.22;2947626;40;20138;-75
2021/08/05 01:14:45;;;;;;;9.43;4.15;;;;;;;24.44;43.49;94548.31;2946741;40;20142;-76
2021/08/05 01:16:47;;;;;;;14.13;4.20;;;;;;;24.50;43.36;94548.16;2944527;40;20403;-75
2021/08/05 01:18:50;;;;;;;11.90;4.13;;;;;;;24.53;42.82;94553.00;2956465;40;20107;-75
2021/08/05 01:20:52;;;;;;;11.05;3.90;;;;;;;24.57;42.87;94553.34;2946631;40;20135;-75
2021/08/05 01:22:53;;;;;;;7.90;3.75;;;;;;;24.62;42.96;94550.69;2945357;40;20051;-74
2021/08/05 01:25:09;;;;;;;10.55;4.28;;;;;;;24.62;43.07;94545.34;2952160;40;20058;-75
2021/08/05 01:27:11;;;;;;;10.57;3.95;;;;;;;24.56;43.37;94542.84;2949382;40;20093;-76
2021/08/05 01:29:14;;;;;;;10.80;3.92;;;;;;;24.50;43.34;94542.81;2960923;40;20142;-75
2021/08/05 01:31:43;;;;;;;8.07;3.85;;;;;;;24.53;43.20;94536.94;2963022;40;20347;-75
2021/08/05 01:33:46;;;;;;;11.20;3.78;;;;;;;24.57;42.90;94531.09;2941612;40;20053;-76
2021/08/05 01:35:51;;;;;;;10.82;4.10;;;;;;;24.59;42.97;94532.47;2948106;40;20089;-75
2021/08/05 01:37:53;;;;;;;8.50;4.20;;;;;;;24.63;43.09;94525.56;2947744;40;20045;-76
2021/08/05 01:39:55;;;;;;;8.88;3.90;;;;;;;24.45;43.07;94529.31;2948531;40;20130;-76
2021/08/05 01:41:57;;;;;;;10.50;3.78;;;;;;;24.40;43.09;94525.78;2950005;40;20354;-75
2021/08/05 01:43:59;;;;;;;9.07;4.32;;;;;;;24.28;42.83;94523.22;2948207;40;20547;-76
2021/08/05 01:46:01;;;;;;;7.40;3.70;;;;;;;24.19;43.02;94524.72;2947313;40;20101;-76
2021/08/05 01:48:05;;;;;;;7.30;3.87;;;;;;;24.21;43.20;94528.75;2960793;40;20052;-76
2021/08/05 01:50:07;;;;;;;8.23;3.92;;;;;;;24.29;43.39;94524.84;2956733;40;20069;-76
2021/08/05 01:52:12;;;;;;;10.80;4.07;;;;;;;24.34;42.74;94522.22;2947513;40;20145;-76
2021/08/05 01:54:14;;;;;;;8.82;3.90;;;;;;;24.29;43.13;94514.94;2963187;40;20490;-66
2021/08/05 01:56:20;;;;;;;9.52;3.90;;;;;;;24.33;43.26;94520.63;2948884;40;20093;-66
2021/08/05 01:58:21;;;;;;;10.52;3.70;;;;;;;24.38;43.51;94506.47;2949767;40;20218;-65
2021/08/05 02:00:24;;;;;;;11.00;4.18;;;;;;;24.36;42.82;94504.03;2964864;40;20358;-66
2021/08/05 02:02:25;;;;;;;9.13;4.30;;;;;;;24.38;43.21;94507.28;2959292;40;20102;-66
2021/08/05 02:04:50;;;;;;;12.45;4.13;;;;;;;24.34;43.40;94511.50;2956557;40;20602;-66
2021/08/05 02:07:07;;;;;;;12.45;3.97;;;;;;;24.30;43.25;94500.50;2941902;40;20108;-65
2021/08/05 02:09:15;;;;;;;8.52;3.78;;;;;;;24.37;43.91;94505.69;2945640;40;20481;-67
2021/08/05 02:11:22;;;;;;;10.85;4.00;;;;;;;24.42;43.79;94507.59;2964708;40;20051;-66
2021/08/05 02:13:27;;;;;;;7.70;4.68;;;;;;;24.44;43.54;94503.63;2955474;40;20056;-66
2021/08/05 02:15:31;;;;;;;13.20;4.20;;;;;;;24.49;43.58;94506.38;2941542;40;20055;-66
2021/08/05 02:17:36;;;;;;;9.40;4.65;;;;;;;24.53;43.65;94506.69;2944164;40;20045;-67
2021/08/05 02:19:38;;;;;;;10.05;5.13;;;;;;;24.53;43.74;94506.69;2947485;40;20068;-68
2021/08/05 02:21:41;;;;;;;8.88;4.25;;;;;;;24.56;43.96;94492.78;2941503;40;20394;-75
2021/08/05 02:23:43;;;;;;;9.98;4.18;;;;;;;24.60;44.02;94498.44;2949956;40;20050;-75
2021/08/05 02:25:48;;;;;;;7.88;4.10;;;;;;;24.58;44.24;94503.25;2955370;40;20115;-75
2021/08/05 02:27:50;;;;;;;7.97;3.97;;;;;;;24.60;43.89;94498.44;2951335;40;20093;-75
2021/08/05 02:29:53;;;;;;;8.68;4.28;;;;;;;24.51;43.80;94508.81;2948916;40;20138;-75
2021/08/05 02:31:56;;;;;;;13.00;5.03;;;;;;;24.37;43.45;94504.84;2948485;40;20083;-75
2021/08/05 02:33:58;;;;;;;8.20;4.00;;;;;;;23.71;44.18;94510.94;2949466;40;20125;-75
2021/08/05 02:36:01;;;;;;;14.40;4.15;;;;;;;23.43;44.75;94504.63;2948841;40;20065;-77
2021/08/05 02:38:03;;;;;;;10.05;4.30;;;;;;;23.26;45.60;94503.84;2956784;40;20479;-74
2021/08/05 02:40:06;;;;;;;15.65;4.43;;;;;;;23.42;45.25;94504.88;2949603;40;20480;-76
2021/08/05 02:42:09;;;;;;;9.40;4.22;;;;;;;23.55;44.77;94498.38;2964729;40;20348;-75
2021/08/05 02:44:10;;;;;;;12.73;4.20;;;;;;;23.47;44.69;94503.09;2947866;40;20061;-75
2021/08/05 02:46:13;;;;;;;11.05;4.50;;;;;;;23.55;44.95;94503.72;2957000;40;20049;-75
2021/08/05 02:48:15;;;;;;;10.95;4.80;;;;;;;23.53;44.72;94503.97;2949438;40;20064;-76
2021/08/05 02:50:18;;;;;;;15.52;4.63;;;;;;;23.49;44.71;94502.84;2949455;40;20063;-75
2021/08/05 02:52:20;;;;;;;8.80;3.90;;;;;;;23.56;44.73;94505.38;2946244;40;20142;-76
2021/08/05 02:54:22;;;;;;;11.15;4.32;;;;;;;23.48;45.00;94499.34;2947833;40;20398;-76
2021/08/05 02:56:24;;;;;;;12.73;4.40;;;;;;;23.55;44.71;94504.53;2963586;40;20060;-77
2021/08/05 02:58:26;;;;;;;10.70;4.32;;;;;;;23.67;44.42;94501.78;2959016;40;20037;-75
2021/08/05 03:00:28;;;;;;;11.20;4.28;;;;;;;23.71;44.42;94503.72;2954135;40;20045;-74
2021/08/05 03:02:30;;;;;;;12.43;4.45;;;;;;;23.79;44.46;94510.56;2960336;40;20153;-76
2021/08/05 03:04:35;;;;;;;13.93;4.35;;;;;;;23.86;44.15;94505.03;2948044;40;20166;-74
2021/08/05 03:06:37;;;;;;;9.10;4.15;;;;;;;23.79;44.17;94510.56;2945910;40;20135;-77
2021/08/05 03:08:40;;;;;;;15.13;4.60;;;;;;;23.57;44.87;94502.44;2948025;40;20057;-74
2021/08/05 03:10:42;;;;;;;9.38;4.55;;;;;;;23.50;44.50;94501.78;2956130;40;20056;-74
2021/08/05 03:12:44;;;;;;;12.88;4.30;;;;;;;23.39;44.80;94506.16;2949200;40;20088;-75
2021/08/05 03:14:46;;;;;;;13.82;4.88;;;;;;;23.38;45.03;94490.38;2948985;40;20072;-74
2021/08/05 03:16:47;;;;;;;10.45;5.07;;;;;;;23.31;44.98;94491.34;2944318;40;20057;-75
2021/08/05 03:18:49;;;;;;;13.70;4.60;;;;;;;23.14;45.69;94493.19;2949506;40;20127;-77
2021/08/05 03:20:51;;;;;;;11.18;5.07;;;;;;;23.17;45.58;94503.44;2948636;40;20055;-76
2021/08/05 03:22:54;;;;;;;17.17;5.47;;;;;;;23.25;45.68;94494.19;2952076;40;20065;-75
2021/08/05 03:24:55;;;;;;;15.82;5.38;;;;;;;23.18;45.37;94489.00;2948494;40;20438;-76
2021/08/05 03:26:57;;;;;;;14.23;5.60;;;;;;;23.07;45.81;94480.00;2948298;40;20107;-76
2021/08/05 03:28:59;;;;;;;12.95;6.00;;;;;;;23.14;45.86;94481.72;2949428;40;20057;-76
2021/08/05 03:31:01;;;;;;;11.90;5.40;;;;;;;23.11;45.58;94480.34;2949248;40;20073;-76
2021/08/05 03:33:03;;;;;;;13.18;5.70;;;;;;;23.08;45.71;94488.81;2947095;40;20142;-75
2021/08/05 03:35:05;;;;;;;14.85;5.05;;;;;;;23.17;45.51;94484.72;2949789;40;20234;-77
2021/08/05 03:37:07;;;;;;;9.77;4.82;;;;;;;23.29;45.25;94479.28;2948705;40;20065;-76
2021/08/05 03:39:08;;;;;;;11.77;4.55;;;;;;;23.39;45.20;94479.44;2948603;40;20073;-75
2021/08/05 03:41:10;;;;;;;14.95;5.43;;;;;;;23.47;45.21;94481.72;2949826;40;20427;-74
2021/08/05 03:43:12;;;;;;;11.20;5.40;;;;;;;23.54;44.89;94484.22;2949535;40;20057;-75
2021/08/05 03:45:13;;;;;;;10.77;5.93;;;;;;;23.57;44.57;94475.69;2949093;40;20146;-75
2021/08/05 03:47:15;;;;;;;9.77;5.00;;;;;;;23.61;44.30;94476.00;2949010;40;20057;-76
2021/08/05 03:49:17;;;;;;;8.85;5.28;;;;;;;23.67;44.44;94475.03;2950641;40;20263;-77
2021/08/05 03:51:18;;;;;;;10.95;5.70;;;;;;;23.64;44.53;94476.34;2945945;40;20418;-75
2021/08/05 03:53:20;;;;;;;10.60;5.07;;;;;;;23.70;44.52;94472.69;2950770;40;20049;-75
2021/08/05 03:55:22;;;;;;;15.05;5.18;;;;;;;23.75;43.99;94471.13;2950466;40;20548;-76
2021/08/05 03:57:24;;;;;;;9.23;4.70;;;;;;;23.80;44.29;94474.72;2957472;40;20057;-75
2021/08/05 03:59:25;;;;;;;13.80;5.15;;;;;;;23.84;43.95;94469.69;2950309;40;20134;-76
2021/08/05 04:01:27;;;;;;;14.13;5.22;;;;;;;23.84;44.19;94472.34;2948928;40;20122;-75
2021/08/05 04:03:29;;;;;;;13.65;5.43;;;;;;;23.89;44.33;94462.53;2950215;40;20051;-76
2021/08/05 04:05:31;;;;;;;11.32;5.38;;;;;;;23.95;43.92;94466.06;2950306;40;20475;-77
2021/08/05 04:07:33;;;;;;;12.85;5.20;;;;;;;23.99;43.69;94469.06;2949567;40;20061;-78
2021/08/05 04:09:35;;;;;;;8.23;5.10;;;;;;;23.99;43.64;94472.56;2948508;40;20637;-76
2021/08/05 04:11:36;;;;;;;16.23;5.85;;;;;;;23.80;44.43;94466.69;2946797;40;20060;-66
2021/08/05 04:13:38;;;;;;;14.50;6.05;;;;;;;23.84;44.46;94464.34;2950603;40;20069;-66
2021/08/05 04:15:43;;;;;;;11.73;5.43;;;;;;;23.46;45.06;94460.56;2950064;40;20174;-67
2021/08/05 04:17:45;;;;;;;12.68;5.28;;;;;;;23.55;45.07;94472.44;2949952;40;20162;-68
2021/08/05 04:19:48;;;;;;;13.68;5.03;;;;;;;23.65;44.76;94459.22;2949874;40;20411;-66
2021/08/05 04:21:51;;;;;;;13.17;5.40;;;;;;;23.52;45.18;94464.94;2948314;40;20046;-67
2021/08/05 04:23:53;;;;;;;13.60;5.33;;;;;;;23.60;45.08;94475.22;2950030;40;20315;-67
2021/08/05 04:25:54;;;;;;;14.65;5.30;;;;;;;23.58;45.03;94461.28;2949637;40;20166;-66
2021/08/05 04:27:56;;;;;;;15.82;6.30;;;;;;;23.54;45.47;94456.66;2950326;40;20107;-78
2021/08/05 04:29:59;;;;;;;17.55;6.28;;;;;;;23.64;45.35;94464.81;2956247;40;20072;-76
2021/08/05 04:32:00;;;;;;;13.07;5.63;;;;;;;23.68;44.89;94469.44;2949195;40;20401;-76
2021/08/05 04:34:02;;;;;;;13.65;6.22;;;;;;;23.74;44.88;94464.97;2950197;40;20060;-77
2021/08/05 04:36:04;;;;;;;11.10;5.85;;;;;;;23.84;44.29;94456.31;2950931;40;20045;-76
2021/08/05 04:38:06;;;;;;;12.75;5.50;;;;;;;24.01;44.51;94462.41;2950284;40;20090;-76
2021/08/05 04:40:08;;;;;;;12.77;6.03;;;;;;;24.15;44.07;94460.16;2950199;40;20061;-67
2021/08/05 04:42:10;;;;;;;8.93;5.43;;;;;;;24.18;43.60;94453.50;2949330;40;20075;-68
2021/08/05 04:44:12;;;;;;;12.32;5.75;;;;;;;24.27;43.52;94455.50;2949445;40;20186;-68
2021/08/05 04:46:13;;;;;;;10.55;6.10;;;;;;;24.34;43.47;94457.97;2949260;40;20155;-66
2021/08/05 04:48:15;;;;;;;13.50;5.47;;;;;;;24.38;43.63;94459.09;2949555;40;20064;-68
2021/08/05 04:50:18;;;;;;;11.55;5.55;;;;;;;24.25;43.87;94460.28;2950374;40;20046;-66
2021/08/05 04:52:19;;;;;;;10.85;5.05;;;;;;;24.26;43.67;94463.78;2948760;40;20049;-67
2021/08/05 04:54:21;;;;;;;11.93;5.30;;;;;;;24.30;43.84;94462.22;2949714;40;20202;-67
2021/08/05 04:56:23;;;;;;;13.25;5.32;;;;;;;24.39;43.75;94466.06;2949390;40;20103;-66
2021/08/05 04:58:24;;;;;;;12.23;5.50;;;;;;;24.21;44.05;94459.16;2949835;40;20068;-66
2021/08/05 05:00:28;;;;;;;8.45;4.57;;;;;;;24.24;43.98;94457.84;2950043;40;20053;-66
2021/08/05 05:02:30;;;;;;;10.60;4.85;;;;;;;24.29;43.78;94460.59;2939275;40;20065;-67
2021/08/05 05:04:32;;;;;;;15.27;4.85;;;;;;;24.19;44.49;94471.19;2948062;40;20049;-67
2021/08/05 05:06:33;;;;;;;11.07;5.03;;;;;;;24.36;44.50;94466.56;2948398;40;20170;-67
2021/08/05 05:08:35;;;;;;;13.98;6.05;;;;;;;24.19;45.09;94455.13;2949699;40;20049;-67
2021/08/05 05:10:42;;;;;;;10.75;5.05;;;;;;;24.17;44.96;94465.28;2956087;40;20068;-67
2021/08/05 05:12:44;;;;;;;10.20;6.28;;;;;;;24.25;44.17;94451.47;2944944;40;20652;-68
2021/08/05 05:14:46;;;;;;;9.82;5.05;;;;;;;24.41;44.21;94455.09;2956894;40;20176;-67
2021/08/05 05:16:48;;;;;;;11.75;5.57;;;;;;;24.15;44.42;94452.13;2948835;40;20303;-66
2021/08/05 05:18:50;;;;;;;10.93;4.78;;;;;;;23.86;45.55;94452.31;2949746;40;20068;-67
2021/08/05 05:20:52;;;;;;;11.43;5.45;;;;;;;24.00;45.19;94454.63;2949154;40;20117;-67
2021/08/05 05:22:54;;;;;;;8.25;4.93;;;;;;;24.21;45.03;94443.09;2948438;40;20045;-66
2021/08/05 05:24:56;;;;;;;14.55;5.50;;;;;;;24.28;45.01;94443.72;2950405;40;20162;-66
2021/08/05 05:26:57;;;;;;;9.80;5.05;;;;;;;24.45;44.35;94448.19;2949846;40;20426;-66
2021/08/05 05:28:59;;;;;;;14.57;5.65;;;;;;;24.50;44.20;94440.22;2949781;40;20077;-77
2021/08/05 05:31:02;;;;;;;13.32;5.35;;;;;;;24.67;44.16;94434.78;2950547;40;20143;-79
2021/08/05 05:33:04;;;;;;;12.93;5.47;;;;;;;24.86;43.41;94444.06;2950025;40;20065;-76
2021/08/05 05:35:06;;;;;;;13.38;6.05;;;;;;;24.89;43.81;94438.22;2949925;40;20339;-77
2021/08/05 05:37:08;;;;;;;18.85;7.20;;;;;;;25.07;43.27;94444.25;2947872;40;20061;-77
2021/08/05 05:39:10;;;;;;;12.88;5.85;;;;;;;25.23;43.28;94435.31;2949809;40;20062;-80
2021/08/05 05:41:11;;;;;;;13.38;4.85;;;;;;;25.31;43.59;94431.31;2949969;40;20057;-78
2021/08/05 05:43:13;;;;;;;10.30;5.55;;;;;;;25.40;43.26;94434.31;2949664;40;20045;-82
2021/08/05 05:45:17;;;;;;;10.60;5.55;;;;;;;25.47;43.04;94429.56;2940765;40;20111;-77
2021/08/05 05:47:18;;;;;;;;;;;;;;;25.58;43.12;94430.44;2949780;40;20143;-81
2021/08/05 05:49:20;;;;;;;11.85;5.68;;;;;;;25.46;43.37;94428.75;2949851;40;20026;-80
2021/08/05 05:51:22;;;;;;;14.15;5.43;;;;;;;25.22;44.06;94438.22;2949585;40;20146;-82
2021/08/05 05:53:23;;;;;;;14.27;5.90;;;;;;;25.34;43.88;94428.13;2949870;40;20074;-78
2021/08/05 05:55:28;;;;;;;11.63;6.25;;;;;;;25.48;43.41;94423.94;2950837;40;20414;-79
2021/08/05 05:57:30;;;;;;;12.63;6.13;;;;;;;25.46;44.03;94422.56;2951987;40;20047;-80
2021/08/05 05:59:32;;;;;;;13.23;6.22;;;;;;;25.47;44.03;94418.84;2949765;40;20104;-78
2021/08/05 06:01:35;;;;;;;14.43;7.05;;;;;;;25.63;43.92;94417.84;2945574;40;20101;-79
2021/08/05 06:03:37;;;;;;;;;;;;;;;25.67;44.17;94413.56;2950202;40;20057;-82
2021/08/05 06:05:39;;;;;;;12.07;6.00;;;;;;;25.71;43.86;94409.31;2957380;40;19988;-78
2021/08/05 06:07:51;;;;;;;12.30;6.60;;;;;;;25.69;43.78;94407.97;2949400;40;20396;-78
2021/08/05 06:09:54;;;;;;;11.65;6.32;;;;;;;25.40;44.64;94402.16;2948265;40;20094;-67
2021/08/05 06:11:56;;;;;;;14.13;6.37;;;;;;;25.50;44.59;94394.19;2948765;40;20053;-68
2021/08/05 06:13:58;;;;;;;14.07;6.53;;;;;;;25.69;44.33;94394.53;2948652;40;20324;-67
2021/08/05 06:15:59;;;;;;;13.40;6.50;;;;;;;25.75;44.63;94404.25;2956725;40;20429;-67
2021/08/05 06:18:03;;;;;;;12.57;6.00;;;;;;;25.76;45.28;94400.47;2945443;40;20331;-67
2021/08/05 06:20:05;;;;;;;9.98;6.20;;;;;;;25.81;45.60;94392.44;2949404;40;20115;-68
2021/08/05 06:22:10;;;;;;;11.90;6.57;;;;;;;25.83;46.29;94397.53;2953551;40;20045;-65
2021/08/05 06:24:12;;;;;;;13.05;6.60;;;;;;;25.98;46.15;94389.59;2963969;40;20091;-77
2021/08/05 06:26:14;;;;;;;14.95;7.28;;;;;;;26.11;46.13;94390.97;2949799;40;20458;-67
2021/08/05 06:28:16;;;;;;;13.18;6.70;;;;;;;26.26;45.70;94407.13;2947725;40;20337;-68
2021/08/05 06:30:21;;;;;;;12.90;6.88;;;;;;;26.36;45.77;94396.41;2949617;40;20064;-79
2021/08/05 06:32:23;;;;;;;12.32;6.85;;;;;;;26.45;45.36;94385.16;2950027;40;20616;-79
2021/08/05 06:34:25;;;;;;;14.52;6.35;;;;;;;26.51;45.08;94373.34;2949641;40;20288;-79
2021/08/05 06:36:26;;;;;;;12.15;6.57;;;;;;;26.41;45.63;94373.34;2948871;40;20110;-78
2021/08/05 06:38:28;;;;;;;12.02;6.97;;;;;;;26.41;45.64;94379.50;2949888;40;20061;-78
2021/08/05 06:40:30;;;;;;;12.13;6.18;;;;;;;26.35;46.49;94373.34;2949979;40;20051;-76
2021/08/05 06:42:34;;;;;;;14.88;7.05;;;;;;;26.49;46.67;94368.25;2956854;40;20293;-79
2021/08/05 06:44:37;;;;;;;13.05;7.32;;;;;;;26.68;46.25;94359.72;2956476;40;20215;-77
2021/08/05 06:46:39;;;;;;;15.73;7.10;;;;;;;26.85;45.85;94362.94;2956734;40;20130;-77
2021/08/05 06:48:41;;;;;;;14.23;7.35;;;;;;;26.97;45.42;94368.03;2949360;40;20154;-77
2021/08/05 06:50:43;;;;;;;12.13;7.20;;;;;;;27.04;45.36;94367.75;2949442;40;20306;-77
2021/08/05 06:52:46;;;;;;;10.57;6.93;;;;;;;26.90;46.21;94360.22;2948953;40;20049;-75
2021/08/05 06:54:49;;;;;;;12.25;7.00;;;;;;;27.00;46.21;94374.75;2949417;40;20072;-77
2021/08/05 06:56:50;;;;;;;11.10;6.82;;;;;;;26.86;46.37;94353.78;2949316;40;20150;-77
2021/08/05 06:58:52;;;;;;;10.10;6.88;;;;;;;26.72;46.95;94345.47;2949193;40;20429;-67
2021/08/05 07:00:54;;;;;;;14.48;7.55;;;;;;;26.91;46.43;94352.97;2952116;40;20190;-79
2021/08/05 07:02:56;;;;;;;18.60;7.25;;;;;;;27.00;46.22;94350.56;2947736;40;20115;-79
2021/08/05 07:05:02;;;;;;;13.85;7.07;;;;;;;26.92;46.78;94355.41;2949571;40;20049;-77
2021/08/05 07:07:04;;;;;;;16.63;7.85;;;;;;;27.00;46.66;94361.31;2944980;40;20061;-76
2021/08/05 07:09:06;;;;;;;13.40;7.30;;;;;;;27.02;46.64;94351.06;2949481;40;20038;-77
2021/08/05 07:11:07;;;;;;;15.00;7.47;;;;;;;27.18;46.53;94353.47;2948997;40;20146;-76
2021/08/05 07:13:09;;;;;;;14.65;7.22;;;;;;;27.32;46.70;94353.78;2946827;40;20111;-77
2021/08/05 07:15:11;;;;;;;15.90;7.00;;;;;;;27.40;46.74;94352.41;2949157;40;20379;-78
2021/08/05 07:17:14;;;;;;;12.50;7.28;;;;;;;27.57;45.83;94355.56;2945078;40;20057;-80
2021/08/05 07:19:16;;;;;;;11.52;6.80;;;;;;;27.76;45.96;94352.28;2948932;40;20324;-77
2021/08/05 07:21:18;;;;;;;12.30;7.25;;;;;;;27.92;45.67;94350.34;2955993;40;20394;-77
2021/08/05 07:23:19;;;;;;;18.85;7.82;;;;;;;27.91;45.24;94343.38;2948759;40;20174;-80
2021/08/05 07:25:21;;;;;;;17.70;7.47;;;;;;;27.86;45.92;94351.50;2949367;40;20512;-78
2021/08/05 07:27:23;;;;;;;12.38;7.65;;;;;;;27.68;45.85;94348.28;2949250;40;20061;-76
2021/08/05 07:29:25;;;;;;;14.02;7.55;;;;;;;27.69;46.41;94343.72;2948373;40;20057;-77
2021/08/05 07:31:27;;;;;;;14.10;7.60;;;;;;;27.84;45.98;94346.34;2949521;40;20560;-75
2021/08/05 07:33:28;;;;;;;12.13;7.55;;;;;;;28.05;45.77;94339.00;2949160;40;20057;-76
2021/08/05 07:35:30;;;;;;;12.43;7.47;;;;;;;28.14;45.63;94326.56;2956687;40;20049;-80
2021/08/05 07:37:32;;;;;;;15.95;7.30;;;;;;;27.89;46.64;94329.38;2948405;40;20138;-73
2021/08/05 07:39:34;;;;;;;16.30;7.75;;;;;;;28.09;45.86;94340.06;2956720;40;20057;-72
2021/08/05 07:41:35;;;;;;;10.27;7.10;;;;;;;28.31;45.83;94342.34;2956991;40;20314;-74
2021/08/05 07:43:37;;;;;;;11.18;7.45;;;;;;;28.17;45.90;94335.97;2948214;40;20142;-77
2021/08/05 07:45:39;;;;;;;9.88;6.50;;;;;;;27.96;46.76;94332.56;2949378;40;20045;-76
2021/08/05 07:47:41;;;;;;;11.85;7.25;;;;;;;28.02;46.81;94331.47;2948982;40;20065;-76
2021/08/05 07:49:43;;;;;;;9.88;6.68;;;;;;;28.27;46.35;94325.13;2949344;40;20049;-76
2021/08/05 07:51:45;;;;;;;15.77;7.18;;;;;;;28.48;46.03;94325.84;2949109;40;20155;-77
2021/08/05 07:53:47;;;;;;;20.17;8.23;;;;;;;28.42;46.06;94316.16;2949147;40;20045;-72
2021/08/05 07:55:48;;;;;;;13.65;7.65;;;;;;;28.25;46.53;94319.22;2947588;40;20142;-73
2021/08/05 07:57:51;;;;;;;13.35;7.80;;;;;;;28.49;45.71;94321.25;2948869;40;20053;-76
2021/08/05 07:59:52;;;;;;;15.45;7.45;;;;;;;28.68;44.99;94322.19;2943370;40;20044;-74
2021/08/05 08:01:54;;;;;;;13.00;7.70;;;;;;;28.88;44.98;94323.91;2949312;40;20054;-74
2021/08/05 08:03:56;;;;;;;13.35;7.10;;;;;;;29.14;44.36;94318.31;2948342;40;20471;-77
2021/08/05 08:05:58;;;;;;;10.90;7.15;;;;;;;29.36;44.32;94318.63;2948470;40;20061;-74
2021/08/05 08:08:00;;;;;;;14.20;7.05;;;;;;;29.44;44.18;94311.00;2949348;40;20146;-74
2021/08/05 08:10:02;;;;;;;14.98;7.15;;;;;;;29.50;44.08;94318.72;2948878;40;20106;-73
2021/08/05 08:12:04;;;;;;;16.65;7.70;;;;;;;29.25;45.00;94317.09;2943005;40;20074;-72
2021/08/05 08:14:06;;;;;;;11.07;7.18;;;;;;;29.09;44.49;94310.25;2948079;40;20608;-73
2021/08/05 08:16:08;;;;;;;16.73;7.43;;;;;;;29.18;44.38;94312.06;2946772;40;20106;-76
2021/08/05 08:18:10;;;;;;;14.05;7.57;;;;;;;29.21;43.98;94305.28;2950156;40;20058;-73
2021/08/05 08:20:12;;;;;;;13.23;7.05;;;;;;;29.27;44.67;94306.03;2948780;40;20410;-71
2021/08/05 08:22:13;;;;;;;13.00;6.93;;;;;;;29.18;44.28;94297.75;2947340;40;20038;-80
2021/08/05 08:24:15;;;;;;;10.90;6.80;;;;;;;29.34;44.58;94296.53;2947356;40;20066;-75
2021/08/05 08:26:17;;;;;;;13.77;7.13;;;;;;;29.59;43.70;94294.63;2946610;40;20476;-75
2021/08/05 08:28:19;;;;;;;10.05;6.90;;;;;;;29.83;42.91;94293.81;2948308;40;20073;-80
2021/08/05 08:30:21;;;;;;;12.68;6.78;;;;;;;29.99;41.76;94284.44;2949485;40;20044;-75
2021/08/05 08:32:23;;;;;;;13.93;7.55;;;;;;;30.16;41.30;94276.63;2944964;40;20045;-82
2021/08/05 08:34:25;;;;;;;13.13;7.20;;;;;;;30.28;41.56;94276.19;2948432;40;20052;-74
2021/08/05 08:36:27;;;;;;;12.80;7.22;;;;;;;30.28;39.88;94280.75;2949457;40;20138;-76
2021/08/05 08:38:28;;;;;;;16.08;7.25;;;;;;;30.44;40.10;94267.84;2950421;40;20367;-74
2021/08/05 08:40:30;;;;;;;14.55;7.95;;;;;;;30.65;39.13;94266.41;2950130;40;20356;-75
2021/08/05 08:42:32;;;;;;;15.27;7.55;;;;;;;30.78;38.25;94265.69;2957288;40;20053;-76
2021/08/05 08:44:34;;;;;;;15.32;7.65;;;;;;;30.77;37.69;94265.97;2950406;40;20053;-81
2021/08/05 08:46:36;;;;;;;11.70;7.68;;;;;;;30.97;37.06;94257.50;2951389;40;20156;-85
2021/08/05 08:48:40;;;;;;;12.60;6.75;;;;;;;31.10;37.25;94258.63;2954629;40;20049;-84
2021/08/05 08:50:42;;;;;;;15.63;7.25;;;;;;;31.11;37.83;94262.94;2959335;40;20123;-87
2021/08/05 08:52:45;;;;;;;14.35;7.72;;;;;;;31.30;37.66;94260.16;2963060;40;20110;-74
2021/08/05 08:54:47;;;;;;;12.73;7.53;;;;;;;31.39;37.57;94258.34;2948843;40;20542;-74
2021/08/05 08:56:52;;;;;;;22.50;9.45;;;;;;;31.54;37.07;94254.56;2962926;40;20064;-73
2021/08/05 08:58:54;;;;;;;17.08;8.80;;;;;;;31.66;36.23;94251.34;2949612;40;20580;-75
2021/08/05 09:00:55;;;;;;;13.98;7.20;;;;;;;31.68;35.98;94257.25;2947313;40;20515;-74
2021/08/05 09:02:58;;;;;;;17.50;7.63;;;;;;;31.79;35.70;94261.38;2961452;40;20094;-79
2021/08/05 09:05:03;;;;;;;10.43;6.45;;;;;;;31.91;35.15;94254.63;2946966;40;20108;-80
2021/08/05 09:07:06;;;;;;;13.55;7.05;;;;;;;31.86;34.22;94252.84;2949765;40;20053;-80
2021/08/05 09:09:07;;;;;;;15.73;7.45;;;;;;;31.94;34.65;94246.66;2950315;40;20116;-78
2021/08/05 09:11:09;;;;;;;13.40;7.05;;;;;;;32.03;34.47;94242.19;2950185;40;20153;-76
2021/08/05 09:13:15;;;;;;;17.67;7.35;;;;;;;32.19;34.09;94244.53;2950511;40;20130;-79
2021/08/05 09:15:40;;;;;;;17.80;7.90;;;;;;;32.35;34.10;94228.72;2949134;40;20073;-76
2021/08/05 09:17:43;;;;;;;17.05;7.50;;;;;;;32.28;33.83;94225.63;2955866;40;20100;-78
2021/08/05 09:19:45;;;;;;;;;;;;;;;32.40;33.08;94220.47;2947996;40;20069;-75
2021/08/05 09:21:51;;;;;;;13.32;7.20;;;;;;;32.44;33.20;94222.25;2949771;40;19947;-77
2021/08/05 09:24:03;;;;;;;15.85;7.43;;;;;;;32.50;33.63;94214.00;2950733;40;20609;-79
2021/08/05 09:26:24;;;;;;;15.35;8.40;;;;;;;32.63;33.75;94207.72;2955908;40;20114;-74
2021/08/05 09:28:25;;;;;;;15.13;7.60;;;;;;;32.71;33.27;94198.84;2950102;40;20065;-75
2021/08/05 09:30:27;;;;;;;14.90;8.05;;;;;;;32.79;33.17;94200.78;2950906;40;20247;-74
2021/08/05 09:32:29;;;;;;;13.75;7.45;;;;;;;32.76;33.14;94200.59;2950208;40;20048;-75